TAF AMD LDZA 190101Z 1901/2000 VRB02KT CAVOK
                     TX06/1913Z TNM05/1905Z
        PROB30 TEMPO 1902/1907 3000 BR
               BECMG 1909/1911 24008KT=
TAF LDZA 182325Z 1900/2000 VRB02KT CAVOK
                 TX06/1913Z TNM05/1905Z
    PROB40 TEMPO 1901/1908 2000 BCFG
          PROB30 1903/1906 0200 FZFG VV001
           BECMG 1909/1911 24008KT=
TAF LDZA 181725Z 1818/1918 VRB02KT CAVOK
                 TX06/1913Z TNM05/1905Z
          PROB40 1822/1908 2000 BCFG
          PROB30 1903/1907 0200 FZFG VV001
           BECMG 1908/1910 24008KT=
TAF LDZA 181125Z 1812/1912 24005KT 9999 BKN045
                 TX04/1911Z TNM05/1905Z
           TEMPO 1812/1816 24008KT
          PROB40 1821/1908 2000 BCFG
          PROB30 1903/1907 0200 FZFG VV001
           BECMG 1908/1910 24008KT=
TAF LDZA 180525Z 1806/1906 VRB02KT 9999 BKN045
                 TX00/1814Z TNM05/1905Z
           TEMPO 1808/1815 22006KT
          PROB40 1821/1906 2000 BCFG
          PROB30 1903/1906 0200 FZFG VV001=
TAF AMD LDZA 180149Z 1801/1900 VRB02KT 9999 BKN045
                     TX00/1813Z TNM06/1805Z
        PROB40 TEMPO 1803/1809 2000 BR
        PROB30 TEMPO 1803/1807 0300 FZFG VV001
               TEMPO 1809/1815 23007KT
        PROB30 TEMPO 1821/1900 2000 BCFG=
TAF LDZA 172325Z 1800/1900 VRB02KT 9999 BKN045
                 TX00/1813Z TNM06/1805Z
           BECMG 1801/1803 2000 BR
    PROB40 TEMPO 1803/1807 0300 FZFG VV001
           BECMG 1807/1809 8000 NSW
           TEMPO 1809/1815 23007KT
    PROB30 TEMPO 1821/1900 2000 BCFG=
TAF LDZA 171725Z 1718/1818 VRB02KT 9999 BKN025
                 TX00/1813Z TNM06/1805Z
    PROB30 TEMPO 1718/1800 4000 -SN BKN012 OVC020
    PROB30 TEMPO 1807/1815 23007KT=